Time;durP1;ratioP1;P1;durP2;ratioP2;P2;SDS_P1;SDS_P2;PMS_P1;PMS_P2;Temp;Humidity;BMP_temperature;BMP_pressure;BME280_temperature;BME280_humidity;BME280_pressure;Samples;Min_cycle;Max_cycle;Signal;HPM_P1;HPM_P2
2023/04/02 00:02:03;;;;;;;;;;;;;;;;;;5048953;28;43576;-89
2023/04/02 00:04:36;;;;;;;;;;;;;;;;;;5030418;28;42986;-90
2023/04/02 00:07:02;;;;;;;;;;;;;;;;;;5017683;28;43094;-88
2023/04/02 00:09:28;;;;;;;;;;;;;;;;;;5048819;28;42900;-89
2023/04/02 00:11:59;;;;;;;;;;;;;;;;;;5033606;28;44547;-88
2023/04/02 00:14:25;;;;;;;;;;;;;;;;;;5044296;28;43011;-89
2023/04/02 00:16:51;;;;;;;;;;;;;;;;;;5042516;28;45445;-89
2023/04/02 00:19:22;;;;;;;;;;;;;;;;;;5043957;28;43055;-89
2023/04/02 00:21:48;;;;;;;;;;;;;;;;;;5057575;28;43615;-89
2023/04/02 00:24:14;;;;;;;;;;;;;;;;;;5026619;28;43197;-89
2023/04/02 00:26:40;;;;;;;;;;;;;;;;;;5043465;28;44466;-89
2023/04/02 00:29:06;;;;;;;;;;;;;;;;;;5044209;28;42839;-88
2023/04/02 00:31:32;;;;;;;;;;;;;;;;;;5046866;28;43021;-87
2023/04/02 00:33:57;;;;;;;;;;;;;;;;;;5057277;28;42935;-89
2023/04/02 00:36:23;;;;;;;;;;;;;;;;;;5048293;28;44113;-89
2023/04/02 00:38:52;;;;;;;;;;;;;;;;;;5030823;28;42992;-88
2023/04/02 00:41:21;;;;;;;;;;;;;;;;;;5029661;28;44762;-89
2023/04/02 00:43:49;;;;;;;;;;;;;;;;;;5030702;28;43649;-88
2023/04/02 00:46:15;;;;;;;;;;;;;;;;;;5047046;28;42874;-89
2023/04/02 00:48:41;;;;;;;;;;;;;;;;;;5054166;28;43190;-89
2023/04/02 00:51:10;;;;;;;;;;;;;;;;;;5052790;28;43566;-89
2023/04/02 00:53:36;;;;;;;;;;;;;;;;;;5049462;28;43047;-89
2023/04/02 00:56:01;;;;;;;;;;;;;;;;;;5053719;28;43036;-89
2023/04/02 00:58:30;;;;;;;;;;;;;;;;;;5044496;28;43064;-88
2023/04/02 01:00:57;;;;;;;;;;;;;;;;;;5045535;28;45475;-88
2023/04/02 01:03:29;;;;;;;;;;;;;;;;;;5045661;28;42992;-89
2023/04/02 01:05:55;;;;;;;;;;;;;;;;;;5044676;28;43148;-88
2023/04/02 01:08:21;;;;;;;;;;;;;;;;;;5057986;28;43112;-88
2023/04/02 01:10:47;;;;;;;;;;;;;;;;;;5057965;28;43004;-88
2023/04/02 01:13:12;;;;;;;;;;;;;;;;;;5051644;28;43267;-88
2023/04/02 01:15:38;;;;;;;;;;;;;;;;;;5048347;28;43598;-88
2023/04/02 01:18:05;;;;;;;;;;;;;;;;;;5031886;28;42970;-89
2023/04/02 01:20:33;;;;;;;;;;;;;;;;;;5060046;28;43148;-88
2023/04/02 01:23:01;;;;;;;;;;;;;;;;;;5041631;28;42841;-88
2023/04/02 01:25:27;;;;;;;;;;;;;;;;;;5054242;28;42853;-88
2023/04/02 01:27:53;;;;;;;;;;;;;;;;;;5060040;28;43024;-89
2023/04/02 01:30:19;;;;;;;;;;;;;;;;;;5028530;28;43952;-89
2023/04/02 01:32:45;;;;;;;;;;;;;;;;;;5060650;28;43067;-88
2023/04/02 01:35:14;;;;;;;;;;;;;;;;;;5054910;28;43884;-88
2023/04/02 01:37:45;;;;;;;;;;;;;;;;;;5047222;28;43097;-89
2023/04/02 01:40:11;;;;;;;;;;;;;;;;;;5043883;28;44431;-88
2023/04/02 01:42:37;;;;;;;;;;;;;;;;;;5056820;28;42977;-89
2023/04/02 01:45:06;;;;;;;;;;;;;;;;;;5058114;28;43729;-88
2023/04/02 01:47:32;;;;;;;;;;;;;;;;;;5061145;28;43041;-89
2023/04/02 01:50:01;;;;;;;;;;;;;;;;;;5055482;28;43804;-89
2023/04/02 01:52:30;;;;;;;;;;;;;;;;;;5032146;28;43030;-88
2023/04/02 01:54:59;;;;;;;;;;;;;;;;;;5046322;28;43526;-88
2023/04/02 01:57:24;;;;;;;;;;;;;;;;;;5028418;28;43152;-88
2023/04/02 01:59:50;;;;;;;;;;;;;;;;;;5066238;28;43184;-88
2023/04/02 02:02:18;;;;;;;;;;;;;;;;;;5066608;28;42959;-88
2023/04/02 02:04:47;;;;;;;;;;;;;;;;;;5049196;28;43023;-88
2023/04/02 02:07:13;;;;;;;;;;;;;;;;;;5027554;28;43176;-88
2023/04/02 02:09:39;;;;;;;;;;;;;;;;;;5052110;28;43864;-88
2023/04/02 02:12:08;;;;;;;;;;;;;;;;;;5045255;28;43187;-88
2023/04/02 02:14:37;;;;;;;;;;;;;;;;;;5027718;28;44548;-89
2023/04/02 02:17:03;;;;;;;;;;;;;;;;;;5045620;28;43027;-88
2023/04/02 02:19:32;;;;;;;;;;;;;;;;;;5045866;28;43025;-88
2023/04/02 02:22:01;;;;;;;;;;;;;;;;;;5036676;28;42997;-88
2023/04/02 02:24:27;;;;;;;;;;;;;;;;;;5064599;28;43739;-87
2023/04/02 02:26:53;;;;;;;;;;;;;;;;;;5056961;28;42979;-88
2023/04/02 02:29:19;;;;;;;;;;;;;;;;;;5049973;28;43380;-88
2023/04/02 02:31:46;;;;;;;;;;;;;;;;;;5037984;28;43072;-88
2023/04/02 02:34:11;;;;;;;;;;;;;;;;;;5045449;28;43983;-88
2023/04/02 02:36:38;;;;;;;;;;;;;;;;;;5053681;28;43042;-89
2023/04/02 02:39:04;;;;;;;;;;;;;;;;;;5050139;28;42918;-88
2023/04/02 02:41:30;;;;;;;;;;;;;;;;;;5045362;28;42871;-88
2023/04/02 02:43:56;;;;;;;;;;;;;;;;;;5041659;28;44265;-88
2023/04/02 02:46:22;;;;;;;;;;;;;;;;;;5045471;28;43234;-89
2023/04/02 02:48:48;;;;;;;;;;;;;;;;;;5059371;28;42934;-88
2023/04/02 03:10:27;;;;;;;;;;;;;;;;;;5045659;28;42897;-89
2023/04/02 03:31:59;;;;;;;;;;;;;;;;;;4960681;28;43305;-89
2023/04/02 03:34:26;;;;;;;;;;;;;;;;;;4962302;28;42906;-89
2023/04/02 03:36:58;;;;;;;;;;;;;;;;;;4949199;28;45510;-90
2023/04/02 03:39:27;;;;;;;;;;;;;;;;;;4961726;28;43000;-89
2023/04/02 03:41:56;;;;;;;;;;;;;;;;;;4944741;28;45353;-89
2023/04/02 03:44:22;;;;;;;;;;;;;;;;;;4949055;28;43134;-88
2023/04/02 03:46:48;;;;;;;;;;;;;;;;;;4970429;28;43003;-90
2023/04/02 03:49:14;;;;;;;;;;;;;;;;;;4963194;28;43025;-89
2023/04/02 03:51:39;;;;;;;;;;;;;;;;;;4962950;28;42979;-89
2023/04/02 03:54:05;;;;;;;;;;;;;;;;;;4946646;28;43254;-90
2023/04/02 03:56:38;;;;;;;;;;;;;;;;;;4962437;28;43086;-90
2023/04/02 03:59:04;;;;;;;;;;;;;;;;;;4946091;28;42945;-90
2023/04/02 04:01:30;;;;;;;;;;;;;;;;;;4977239;28;44165;-89
2023/04/02 04:03:56;;;;;;;;;;;;;;;;;;5003682;28;42977;-90
2023/04/02 04:06:22;;;;;;;;;;;;;;;;;;5003941;28;43921;-88
2023/04/02 04:08:49;;;;;;;;;;;;;;;;;;5000916;28;42994;-90
2023/04/02 04:11:18;;;;;;;;;;;;;;;;;;5004401;28;43341;-90
2023/04/02 04:13:44;;;;;;;;;;;;;;;;;;5002213;28;42916;-90
2023/04/02 04:16:10;;;;;;;;;;;;;;;;;;5019295;28;44471;-89
2023/04/02 04:18:39;;;;;;;;;;;;;;;;;;5004212;28;43177;-90
2023/04/02 04:21:05;;;;;;;;;;;;;;;;;;5002426;28;45092;-90
2023/04/02 04:23:31;;;;;;;;;;;;;;;;;;5003514;28;43076;-90
2023/04/02 04:25:57;;;;;;;;;;;;;;;;;;5001931;28;44610;-89
2023/04/02 04:28:25;;;;;;;;;;;;;;;;;;4986200;28;43385;-90
2023/04/02 04:30:51;;;;;;;;;;;;;;;;;;5002823;28;44435;-90
2023/04/02 04:33:21;;;;;;;;;;;;;;;;;;4985891;28;43133;-90
2023/04/02 04:35:47;;;;;;;;;;;;;;;;;;5016086;28;44874;-90
2023/04/02 04:38:15;;;;;;;;;;;;;;;;;;5001342;28;43352;-90
2023/04/02 04:40:41;;;;;;;;;;;;;;;;;;4993643;28;43127;-89
2023/04/02 04:43:07;;;;;;;;;;;;;;;;;;5006810;28;43058;-89
2023/04/02 04:45:36;;;;;;;;;;;;;;;;;;4989054;28;43124;-90
2023/04/02 04:48:02;;;;;;;;;;;;;;;;;;4991949;28;43041;-89
2023/04/02 04:50:28;;;;;;;;;;;;;;;;;;5002063;28;44625;-89
2023/04/02 04:52:54;;;;;;;;;;;;;;;;;;4996788;28;42978;-89
2023/04/02 04:55:19;;;;;;;;;;;;;;;;;;5002952;28;42984;-89
2023/04/02 04:57:55;;;;;;;;;;;;;;;;;;4996200;28;43048;-89
2023/04/02 05:00:27;;;;;;;;;;;;;;;;;;4981321;28;44563;-89
2023/04/02 05:02:53;;;;;;;;;;;;;;;;;;4999287;28;43000;-89
2023/04/02 05:05:19;;;;;;;;;;;;;;;;;;5002633;28;43721;-90
2023/04/02 05:07:45;;;;;;;;;;;;;;;;;;5003080;28;43071;-89
2023/04/02 05:10:11;;;;;;;;;;;;;;;;;;5007042;28;43762;-89
2023/04/02 05:12:40;;;;;;;;;;;;;;;;;;5002437;28;42866;-90
2023/04/02 05:15:06;;;;;;;;;;;;;;;;;;4995197;28;43872;-89
2023/04/02 05:17:32;;;;;;;;;;;;;;;;;;4985148;28;43148;-89
2023/04/02 05:19:58;;;;;;;;;;;;;;;;;;5006765;28;44844;-89
2023/04/02 05:22:24;;;;;;;;;;;;;;;;;;5014151;28;42990;-89
2023/04/02 05:24:50;;;;;;;;;;;;;;;;;;5001809;28;45259;-90
2023/04/02 05:27:16;;;;;;;;;;;;;;;;;;5022826;28;42959;-90
2023/04/02 05:29:41;;;;;;;;;;;;;;;;;;5023093;28;43583;-90
2023/04/02 05:32:07;;;;;;;;;;;;;;;;;;5004584;28;43125;-90
2023/04/02 05:34:46;;;;;;;;;;;;;;;;;;;;;
2023/04/02 05:37:16;;;;;;;;;;;;;;;;;;5013823;28;68901;-89
2023/04/02 05:39:42;;;;;;;;;;;;;;;;;;5022981;28;42819;-89
2023/04/02 05:42:14;;;;;;;;;;;;;;;;;;5020913;28;42949;-89
2023/04/02 05:44:40;;;;;;;;;;;;;;;;;;5020457;28;45753;-89
2023/04/02 05:47:09;;;;;;;;;;;;;;;;;;5007669;28;43012;-89
2023/04/02 05:49:45;;;;;;;;;;;;;;;;;;;;;
2023/04/02 05:52:17;;;;;;;;;;;;;;;;;;5019408;28;68738;-89
2023/04/02 05:54:49;;;;;;;;;;;;;;;;;;5021998;28;42933;-90
2023/04/02 05:57:15;;;;;;;;;;;;;;;;;;5022601;28;42830;-89
2023/04/02 05:59:41;;;;;;;;;;;;;;;;;;5022334;28;43078;-90
2023/04/02 06:02:07;;;;;;;;;;;;;;;;;;5022134;28;43005;-89
2023/04/02 06:04:46;;;;;;;;;;;;;;;;;;;;;
2023/04/02 06:07:15;;;;;;;;;;;;;;;;;;5023807;28;67797;-89
2023/04/02 06:09:44;;;;;;;;;;;;;;;;;;5007776;28;45053;-89
2023/04/02 06:12:10;;;;;;;;;;;;;;;;;;5007184;28;42980;-83
2023/04/02 06:14:36;;;;;;;;;;;;;;;;;;5013058;28;43233;-84
2023/04/02 06:17:01;;;;;;;;;;;;;;;;;;5024771;28;42940;-84
2023/04/02 06:19:27;;;;;;;;;;;;;;;;;;5025055;28;43336;-84
2023/04/02 06:21:53;;;;;;;;;;;;;;;;;;5024746;28;43090;-84
2023/04/02 06:24:19;;;;;;;;;;;;;;;;;;5007517;28;44623;-84
2023/04/02 06:26:45;;;;;;;;;;;;;;;;;;5019650;28;43011;-84
2023/04/02 06:29:11;;;;;;;;;;;;;;;;;;5025079;28;42993;-83
2023/04/02 06:31:37;;;;;;;;;;;;;;;;;;5021481;28;43061;-83
2023/04/02 06:34:03;;;;;;;;;;;;;;;;;;5022456;28;43000;-85
2023/04/02 06:36:29;;;;;;;;;;;;;;;;;;5024008;28;43450;-84
2023/04/02 06:38:55;;;;;;;;;;;;;;;;;;5023400;28;43760;-84
2023/04/02 06:41:21;;;;;;;;;;;;;;;;;;5024012;28;43007;-84
2023/04/02 06:43:46;;;;;;;;;;;;;;;;;;5021471;28;43152;-84
2023/04/02 06:46:12;;;;;;;;;;;;;;;;;;5023115;28;43260;-83
2023/04/02 06:48:38;;;;;;;;;;;;;;;;;;5025090;28;43477;-84
2023/04/02 06:51:05;;;;;;;;;;;;;;;;;;5021722;28;43035;-84
2023/04/02 06:53:31;;;;;;;;;;;;;;;;;;5023324;28;43506;-84
2023/04/02 06:55:57;;;;;;;;;;;;;;;;;;5024644;28;44147;-84
2023/04/02 06:58:23;;;;;;;;;;;;;;;;;;5024891;28;42949;-83
2023/04/02 07:00:49;;;;;;;;;;;;;;;;;;5025195;28;42990;-84
2023/04/02 07:03:15;;;;;;;;;;;;;;;;;;5019640;28;43915;-84
2023/04/02 07:05:41;;;;;;;;;;;;;;;;;;5018651;28;43124;-86
2023/04/02 07:08:07;;;;;;;;;;;;;;;;;;4996892;28;45783;-83
2023/04/02 07:10:33;;;;;;;;;;;;;;;;;;5018723;28;42991;-84
2023/04/02 07:13:01;;;;;;;;;;;;;;;;;;5007137;28;44587;-84
2023/04/02 07:15:27;;;;;;;;;;;;;;;;;;5015858;28;42946;-84
2023/04/02 07:17:55;;;;;;;;;;;;;;;;;;5023399;28;43635;-83
2023/04/02 07:20:21;;;;;;;;;;;;;;;;;;5030423;28;42976;-82
2023/04/02 07:22:47;;;;;;;;;;;;;;;;;;5024668;28;43156;-76
2023/04/02 07:25:13;;;;;;;;;;;;;;;;;;5022391;28;43180;-81
2023/04/02 07:27:39;;;;;;;;;;;;;;;;;;5012897;28;43044;-81
2023/04/02 07:30:06;;;;;;;;;;;;;;;;;;5022107;28;42941;-82
2023/04/02 07:32:32;;;;;;;;;;;;;;;;;;5019677;28;44289;-81
2023/04/02 07:34:58;;;;;;;;;;;;;;;;;;5024271;28;42853;-81
2023/04/02 07:37:24;;;;;;;;;;;;;;;;;;5023277;28;43006;-82
2023/04/02 07:39:53;;;;;;;;;;;;;;;;;;5028826;28;43163;-82
2023/04/02 07:42:19;;;;;;;;;;;;;;;;;;5005860;28;43169;-83
2023/04/02 07:44:45;;;;;;;;;;;;;;;;;;5022371;28;44055;-83
2023/04/02 07:47:13;;;;;;;;;;;;;;;;;;5027380;28;43120;-82
2023/04/02 07:49:39;;;;;;;;;;;;;;;;;;5017563;28;43107;-80
2023/04/02 07:52:05;;;;;;;;;;;;;;;;;;5023363;28;43492;-82
2023/04/02 07:54:31;;;;;;;;;;;;;;;;;;5024461;28;42716;-80
2023/04/02 07:56:57;;;;;;;;;;;;;;;;;;5005138;28;44688;-81
2023/04/02 07:59:23;;;;;;;;;;;;;;;;;;5024519;28;42949;-80
2023/04/02 08:01:49;;;;;;;;;;;;;;;;;;5006235;28;43467;-80
2023/04/02 08:04:15;;;;;;;;;;;;;;;;;;5024808;28;42878;-81
2023/04/02 08:06:41;;;;;;;;;;;;;;;;;;5024299;28;43576;-80
2023/04/02 08:09:07;;;;;;;;;;;;;;;;;;5024744;28;42920;-80
2023/04/02 08:11:33;;;;;;;;;;;;;;;;;;5020923;28;43017;-81
2023/04/02 08:13:59;;;;;;;;;;;;;;;;;;5024138;28;42880;-81
2023/04/02 08:16:25;;;;;;;;;;;;;;;;;;5024216;28;43506;-80
2023/04/02 08:18:50;;;;;;;;;;;;;;;;;;5024841;28;42957;-82
2023/04/02 08:21:16;;;;;;;;;;;;;;;;;;5024546;28;43021;-82
2023/04/02 08:23:42;;;;;;;;;;;;;;;;;;5004321;28;43022;-80
2023/04/02 08:26:08;;;;;;;;;;;;;;;;;;4997737;28;43921;-80
2023/04/02 08:28:34;;;;;;;;;;;;;;;;;;5004763;28;42849;-81
2023/04/02 08:31:00;;;;;;;;;;;;;;;;;;5004295;28;43740;-80
2023/04/02 08:33:26;;;;;;;;;;;;;;;;;;5004734;28;43155;-81
2023/04/02 08:35:52;;;;;;;;;;;;;;;;;;5004595;28;43918;-80
2023/04/02 08:38:18;;;;;;;;;;;;;;;;;;5004529;28;42822;-80
2023/04/02 08:40:44;;;;;;;;;;;;;;;;;;4986461;28;44829;-81
2023/04/02 08:43:10;;;;;;;;;;;;;;;;;;5004639;28;42946;-81
2023/04/02 08:45:36;;;;;;;;;;;;;;;;;;5004346;28;42918;-81
2023/04/02 08:48:04;;;;;;;;;;;;;;;;;;4996188;28;42942;-81
2023/04/02 08:50:30;;;;;;;;;;;;;;;;;;4999329;28;43660;-82
2023/04/02 08:52:56;;;;;;;;;;;;;;;;;;5004661;28;42868;-82
2023/04/02 08:55:24;;;;;;;;;;;;;;;;;;5004078;28;42977;-81
2023/04/02 08:57:50;;;;;;;;;;;;;;;;;;5004349;28;43177;-82
2023/04/02 09:00:16;;;;;;;;;;;;;;;;;;5003997;28;43564;-82
2023/04/02 09:02:44;;;;;;;;;;;;;;;;;;5004166;28;42918;-82
2023/04/02 09:05:10;;;;;;;;;;;;;;;;;;5004322;28;43337;-81
2023/04/02 09:07:36;;;;;;;;;;;;;;;;;;5004468;28;43010;-81
2023/04/02 09:10:03;;;;;;;;;;;;;;;;;;5003935;28;42937;-82
2023/04/02 09:12:29;;;;;;;;;;;;;;;;;;5004225;28;42865;-81
2023/04/02 09:14:55;;;;;;;;;;;;;;;;;;5004016;28;42858;-81
2023/04/02 09:17:21;;;;;;;;;;;;;;;;;;5003634;28;42926;-81
2023/04/02 09:19:47;;;;;;;;;;;;;;;;;;5003497;28;43976;-81
2023/04/02 09:22:13;;;;;;;;;;;;;;;;;;5003555;28;42960;-82
2023/04/02 09:24:39;;;;;;;;;;;;;;;;;;5023001;28;43783;-81
2023/04/02 09:27:05;;;;;;;;;;;;;;;;;;5023940;28;42905;-81
2023/04/02 09:29:31;;;;;;;;;;;;;;;;;;5023692;28;43629;-81
2023/04/02 09:31:56;;;;;;;;;;;;;;;;;;5023669;28;43364;-81
2023/04/02 09:34:22;;;;;;;;;;;;;;;;;;5006678;28;44442;-81
2023/04/02 09:36:48;;;;;;;;;;;;;;;;;;5027358;28;42952;-81
2023/04/02 09:39:15;;;;;;;;;;;;;;;;;;5027141;28;43013;-81
2023/04/02 09:41:41;;;;;;;;;;;;;;;;;;5027050;28;42937;-81
2023/04/02 09:44:07;;;;;;;;;;;;;;;;;;5026496;28;42955;-82
2023/04/02 09:46:32;;;;;;;;;;;;;;;;;;5026978;28;43445;-81
2023/04/02 09:48:59;;;;;;;;;;;;;;;;;;5026416;28;43040;-81
2023/04/02 09:51:25;;;;;;;;;;;;;;;;;;5005778;28;42903;-81
2023/04/02 09:53:51;;;;;;;;;;;;;;;;;;5020847;28;42840;-82
2023/04/02 09:56:17;;;;;;;;;;;;;;;;;;5007236;28;42816;-82
2023/04/02 09:58:43;;;;;;;;;;;;;;;;;;5006836;28;43471;-80
2023/04/02 10:01:09;;;;;;;;;;;;;;;;;;5016563;28;42934;-82
2023/04/02 10:03:35;;;;;;;;;;;;;;;;;;5025824;28;43409;-80
2023/04/02 10:06:01;;;;;;;;;;;;;;;;;;5026669;28;42902;-80
2023/04/02 10:08:27;;;;;;;;;;;;;;;;;;5025768;28;43610;-79
2023/04/02 10:10:53;;;;;;;;;;;;;;;;;;5026380;28;42994;-79
2023/04/02 10:13:19;;;;;;;;;;;;;;;;;;5026115;28;43938;-80
2023/04/02 10:15:45;;;;;;;;;;;;;;;;;;5026716;28;42920;-81
2023/04/02 10:18:11;;;;;;;;;;;;;;;;;;5026371;28;42952;-82
2023/04/02 10:20:38;;;;;;;;;;;;;;;;;;5008351;28;43055;-81
2023/04/02 10:23:04;;;;;;;;;;;;;;;;;;5011503;28;43332;-81
2023/04/02 10:25:30;;;;;;;;;;;;;;;;;;5005610;28;43423;-81
2023/04/02 10:27:55;;;;;;;;;;;;;;;;;;5006260;28;42948;-82
2023/04/02 10:30:21;;;;;;;;;;;;;;;;;;5006266;28;42820;-82
2023/04/02 10:32:47;;;;;;;;;;;;;;;;;;5005821;28;42941;-82
2023/04/02 10:35:14;;;;;;;;;;;;;;;;;;5006292;28;43166;-81
2023/04/02 10:40:16;;;;;;;;;;;;;;;;;;5551898;22;43217;-81
2023/04/02 10:42:42;;;;;;;;;;;;;;;;;;5046549;28;43630;-80
2023/04/02 10:45:08;;;;;;;;;;;;;;;;;;5056421;28;42913;-82
2023/04/02 10:47:33;;;;;;;;;;;;;;;;;;5061048;28;42869;-81
2023/04/02 10:49:59;;;;;;;;;;;;;;;;;;5046408;28;43051;-81
2023/04/02 10:52:25;;;;;;;;;;;;;;;;;;5046172;28;42893;-82
2023/04/02 10:54:51;;;;;;;;;;;;;;;;;;5016734;28;43009;-82
2023/04/02 10:57:17;;;;;;;;;;;;;;;;;;5041715;28;44438;-81
2023/04/02 10:59:43;;;;;;;;;;;;;;;;;;5045709;28;42745;-82
2023/04/02 11:02:09;;;;;;;;;;;;;;;;;;5045578;28;43580;-82
2023/04/02 11:04:35;;;;;;;;;;;;;;;;;;5045952;28;43065;-81
2023/04/02 11:07:01;;;;;;;;;;;;;;;;;;5046122;28;43905;-81
2023/04/02 11:09:27;;;;;;;;;;;;;;;;;;5027447;28;43027;-80
2023/04/02 11:11:53;;;;;;;;;;;;;;;;;;5046081;28;43047;-82
2023/04/02 11:14:18;;;;;;;;;;;;;;;;;;5046560;28;42907;-81
2023/04/02 11:16:44;;;;;;;;;;;;;;;;;;5045906;28;42988;-81
2023/04/02 11:19:10;;;;;;;;;;;;;;;;;;5046045;28;43179;-81
2023/04/02 11:21:36;;;;;;;;;;;;;;;;;;5045782;28;42987;-81
2023/04/02 11:24:02;;;;;;;;;;;;;;;;;;5045817;28;42897;-80
2023/04/02 11:26:28;;;;;;;;;;;;;;;;;;5044439;28;43102;-80
2023/04/02 11:28:54;;;;;;;;;;;;;;;;;;5044443;28;43015;-82
2023/04/02 11:31:20;;;;;;;;;;;;;;;;;;5044310;28;42955;-81
2023/04/02 11:33:46;;;;;;;;;;;;;;;;;;5045283;28;42996;-80
2023/04/02 11:36:12;;;;;;;;;;;;;;;;;;5044394;28;43415;-81
2023/04/02 11:38:38;;;;;;;;;;;;;;;;;;5044787;28;42994;-80
2023/04/02 11:41:04;;;;;;;;;;;;;;;;;;5044686;28;43042;-80
2023/04/02 11:43:30;;;;;;;;;;;;;;;;;;5045946;28;42911;-81
2023/04/02 11:45:56;;;;;;;;;;;;;;;;;;5057539;28;42886;-81
2023/04/02 11:48:22;;;;;;;;;;;;;;;;;;5056858;28;42921;-81
2023/04/02 11:50:48;;;;;;;;;;;;;;;;;;5051305;28;42733;-81
2023/04/02 11:53:14;;;;;;;;;;;;;;;;;;5064865;28;42979;-81
2023/04/02 11:55:40;;;;;;;;;;;;;;;;;;5060152;28;42952;-81
2023/04/02 11:58:06;;;;;;;;;;;;;;;;;;5044682;28;43087;-82
2023/04/02 12:00:32;;;;;;;;;;;;;;;;;;5058031;28;42924;-82
2023/04/02 12:02:58;;;;;;;;;;;;;;;;;;5044926;28;42963;-82
2023/04/02 12:05:24;;;;;;;;;;;;;;;;;;5044856;28;43386;-82
2023/04/02 12:07:53;;;;;;;;;;;;;;;;;;5044749;28;43055;-82
2023/04/02 12:10:19;;;;;;;;;;;;;;;;;;5026220;28;45476;-82
2023/04/02 12:12:45;;;;;;;;;;;;;;;;;;5044630;28;42939;-82
2023/04/02 12:15:12;;;;;;;;;;;;;;;;;;5043925;28;43519;-82
2023/04/02 12:17:37;;;;;;;;;;;;;;;;;;5055832;28;43030;-81
2023/04/02 12:20:08;;;;;;;;;;;;;;;;;;5045413;28;42989;-81
2023/04/02 12:22:34;;;;;;;;;;;;;;;;;;5057244;28;43565;-82
2023/04/02 12:25:00;;;;;;;;;;;;;;;;;;5056894;28;43653;-82
2023/04/02 12:27:26;;;;;;;;;;;;;;;;;;5043733;28;43072;-82
2023/04/02 12:29:54;;;;;;;;;;;;;;;;;;5054496;28;63408;-82
2023/04/02 12:32:20;;;;;;;;;;;;;;;;;;5044502;28;43673;-82
2023/04/02 12:34:46;;;;;;;;;;;;;;;;;;5056593;28;44606;-82
2023/04/02 12:37:12;;;;;;;;;;;;;;;;;;5044189;28;42896;-83
2023/04/02 12:39:38;;;;;;;;;;;;;;;;;;5055327;28;42827;-82
2023/04/02 12:42:04;;;;;;;;;;;;;;;;;;5044560;28;43050;-82
2023/04/02 12:44:30;;;;;;;;;;;;;;;;;;5045092;28;43459;-83
2023/04/02 12:46:56;;;;;;;;;;;;;;;;;;5026352;28;43064;-81
2023/04/02 12:49:22;;;;;;;;;;;;;;;;;;5062915;28;43641;-81
2023/04/02 12:51:48;;;;;;;;;;;;;;;;;;5064072;28;42879;-81
2023/04/02 12:54:14;;;;;;;;;;;;;;;;;;5043755;28;43443;-82
2023/04/02 12:56:40;;;;;;;;;;;;;;;;;;5044618;28;42837;-81
2023/04/02 12:59:06;;;;;;;;;;;;;;;;;;5043907;28;42907;-82
2023/04/02 13:01:32;;;;;;;;;;;;;;;;;;5056106;28;42936;-82
2023/04/02 13:03:58;;;;;;;;;;;;;;;;;;5043604;28;44276;-82
2023/04/02 13:06:25;;;;;;;;;;;;;;;;;;5055969;28;43007;-81
2023/04/02 13:08:51;;;;;;;;;;;;;;;;;;5063126;28;43090;-81
2023/04/02 13:11:17;;;;;;;;;;;;;;;;;;5054850;28;43058;-82
2023/04/02 13:13:43;;;;;;;;;;;;;;;;;;5053168;28;42780;-82
2023/04/02 13:16:09;;;;;;;;;;;;;;;;;;5067068;28;42924;-81
2023/04/02 13:18:35;;;;;;;;;;;;;;;;;;5053515;28;43616;-82
2023/04/02 13:21:04;;;;;;;;;;;;;;;;;;5054370;28;42994;-81
2023/04/02 13:23:30;;;;;;;;;;;;;;;;;;5053547;28;43612;-82
2023/04/02 13:25:56;;;;;;;;;;;;;;;;;;5053158;28;42916;-83
2023/04/02 13:28:22;;;;;;;;;;;;;;;;;;5059460;28;44122;-81
2023/04/02 13:30:47;;;;;;;;;;;;;;;;;;5060328;28;42893;-81
2023/04/02 13:33:13;;;;;;;;;;;;;;;;;;5060518;28;43656;-82
2023/04/02 13:35:39;;;;;;;;;;;;;;;;;;5060706;28;42798;-82
2023/04/02 13:38:05;;;;;;;;;;;;;;;;;;5029040;28;43625;-82
2023/04/02 13:40:31;;;;;;;;;;;;;;;;;;5059801;28;42684;-82
2023/04/02 13:42:57;;;;;;;;;;;;;;;;;;5047980;28;43858;-81
2023/04/02 13:45:23;;;;;;;;;;;;;;;;;;5047022;28;42998;-82
2023/04/02 13:47:49;;;;;;;;;;;;;;;;;;5060241;28;43053;-82
2023/04/02 13:50:15;;;;;;;;;;;;;;;;;;5060360;28;43015;-82
2023/04/02 13:52:41;;;;;;;;;;;;;;;;;;5028560;28;44432;-82
2023/04/02 13:55:07;;;;;;;;;;;;;;;;;;5059616;28;43031;-82
2023/04/02 13:57:33;;;;;;;;;;;;;;;;;;5053447;28;44661;-83
2023/04/02 13:59:59;;;;;;;;;;;;;;;;;;5053210;28;42949;-82
2023/04/02 14:02:26;;;;;;;;;;;;;;;;;;5040890;28;43620;-82
2023/04/02 14:04:52;;;;;;;;;;;;;;;;;;5046075;28;43307;-82
2023/04/02 14:07:18;;;;;;;;;;;;;;;;;;5046803;28;43636;-82
2023/04/02 14:09:46;;;;;;;;;;;;;;;;;;5046981;28;43011;-82
2023/04/02 14:12:12;;;;;;;;;;;;;;;;;;5045934;28;42964;-82
2023/04/02 14:14:38;;;;;;;;;;;;;;;;;;5046620;28;42936;-83
2023/04/02 14:17:04;;;;;;;;;;;;;;;;;;5065879;28;43468;-82
2023/04/02 14:19:30;;;;;;;;;;;;;;;;;;5064673;28;42895;-82
2023/04/02 14:21:56;;;;;;;;;;;;;;;;;;5023322;28;43677;-81
2023/04/02 14:24:22;;;;;;;;;;;;;;;;;;5035090;28;42970;-82
2023/04/02 14:26:48;;;;;;;;;;;;;;;;;;5029364;28;43486;-80
2023/04/02 14:29:14;;;;;;;;;;;;;;;;;;5046780;28;42968;-81
2023/04/02 14:31:40;;;;;;;;;;;;;;;;;;5042336;28;43754;-81
2023/04/02 14:34:06;;;;;;;;;;;;;;;;;;5035979;28;42865;-81
2023/04/02 14:36:31;;;;;;;;;;;;;;;;;;5049115;28;44143;-80
2023/04/02 14:38:57;;;;;;;;;;;;;;;;;;5045272;28;43574;-81
2023/04/02 14:41:23;;;;;;;;;;;;;;;;;;5053609;28;44191;-81
2023/04/02 14:43:49;;;;;;;;;;;;;;;;;;5046994;28;42968;-81
2023/04/02 14:46:15;;;;;;;;;;;;;;;;;;5043300;28;43816;-81
2023/04/02 14:48:41;;;;;;;;;;;;;;;;;;5044750;28;42956;-81
2023/04/02 14:51:07;;;;;;;;;;;;;;;;;;5042324;28;43544;-80
2023/04/02 14:53:36;;;;;;;;;;;;;;;;;;5039977;28;43094;-81
2023/04/02 14:56:02;;;;;;;;;;;;;;;;;;5038696;28;43953;-80
2023/04/02 14:58:27;;;;;;;;;;;;;;;;;;5043730;28;43044;-81
2023/04/02 15:00:53;;;;;;;;;;;;;;;;;;5036099;28;43113;-81
2023/04/02 15:03:19;;;;;;;;;;;;;;;;;;5045361;28;43047;-80
2023/04/02 15:05:45;;;;;;;;;;;;;;;;;;5045032;28;43053;-82
2023/04/02 15:08:11;;;;;;;;;;;;;;;;;;5034088;28;43869;-82
2023/04/02 15:10:37;;;;;;;;;;;;;;;;;;5034070;28;43770;-82
2023/04/02 15:13:03;;;;;;;;;;;;;;;;;;5041112;28;42872;-83
2023/04/02 15:15:31;;;;;;;;;;;;;;;;;;5038087;28;43683;-81
2023/04/02 15:17:57;;;;;;;;;;;;;;;;;;5022318;28;42967;-82
2023/04/02 15:20:22;;;;;;;;;;;;;;;;;;5041485;28;43386;-82
2023/04/02 15:22:48;;;;;;;;;;;;;;;;;;5040687;28;43722;-82
2023/04/02 15:25:14;;;;;;;;;;;;;;;;;;5010380;28;44264;-82
2023/04/02 15:27:40;;;;;;;;;;;;;;;;;;5053362;28;42909;-82
2023/04/02 15:30:07;;;;;;;;;;;;;;;;;;5043104;28;42931;-81
2023/04/02 15:32:34;;;;;;;;;;;;;;;;;;5044552;28;43126;-83
2023/04/02 15:34:59;;;;;;;;;;;;;;;;;;5041179;28;43650;-83
2023/04/02 15:37:25;;;;;;;;;;;;;;;;;;5035268;28;42976;-82
2023/04/02 15:39:53;;;;;;;;;;;;;;;;;;5043370;28;43687;-82
2023/04/02 15:42:19;;;;;;;;;;;;;;;;;;5040300;28;42941;-82
2023/04/02 15:44:45;;;;;;;;;;;;;;;;;;5035677;28;43087;-83
2023/04/02 15:47:11;;;;;;;;;;;;;;;;;;5022954;28;42975;-83
2023/04/02 15:49:37;;;;;;;;;;;;;;;;;;5043859;28;43126;-82
2023/04/02 15:52:04;;;;;;;;;;;;;;;;;;5044607;28;43090;-82
2023/04/02 15:54:30;;;;;;;;;;;;;;;;;;5045901;28;43514;-83
2023/04/02 15:56:56;;;;;;;;;;;;;;;;;;5026891;28;42920;-82
2023/04/02 15:59:21;;;;;;;;;;;;;;;;;;5039653;28;43562;-83
2023/04/02 16:01:47;;;;;;;;;;;;;;;;;;5037728;28;42911;-83
2023/04/02 16:04:13;;;;;;;;;;;;;;;;;;5049014;28;43883;-88
2023/04/02 16:06:40;;;;;;;;;;;;;;;;;;5039617;28;42982;-83
2023/04/02 16:09:06;;;;;;;;;;;;;;;;;;5040617;28;43055;-82
2023/04/02 16:11:32;;;;;;;;;;;;;;;;;;5023079;28;42992;-82
2023/04/02 16:13:58;;;;;;;;;;;;;;;;;;5042729;28;44574;-83
2023/04/02 16:16:24;;;;;;;;;;;;;;;;;;5047493;28;42979;-83
2023/04/02 16:18:50;;;;;;;;;;;;;;;;;;5049282;28;43341;-82
2023/04/02 16:21:16;;;;;;;;;;;;;;;;;;5040519;28;43203;-84
2023/04/02 16:23:42;;;;;;;;;;;;;;;;;;5046315;28;42940;-83
2023/04/02 16:26:11;;;;;;;;;;;;;;;;;;5051804;28;43057;-81
2023/04/02 16:28:37;;;;;;;;;;;;;;;;;;5045414;28;43100;-81
2023/04/02 16:31:03;;;;;;;;;;;;;;;;;;5042985;28;42920;-82
2023/04/02 16:33:29;;;;;;;;;;;;;;;;;;5042524;28;42976;-82
2023/04/02 16:35:55;;;;;;;;;;;;;;;;;;5037245;28;43145;-83
2023/04/02 16:38:21;;;;;;;;;;;;;;;;;;5019225;28;45423;-83
2023/04/02 16:40:47;;;;;;;;;;;;;;;;;;5042449;28;43045;-81
2023/04/02 16:43:13;;;;;;;;;;;;;;;;;;5033967;28;43580;-84
2023/04/02 16:45:40;;;;;;;;;;;;;;;;;;5042112;28;43047;-83
2023/04/02 16:48:06;;;;;;;;;;;;;;;;;;5025098;28;44602;-84
2023/04/02 16:50:32;;;;;;;;;;;;;;;;;;5039014;28;42962;-84
2023/04/02 16:52:58;;;;;;;;;;;;;;;;;;5042653;28;43243;-85
2023/04/02 16:55:24;;;;;;;;;;;;;;;;;;5029442;28;43054;-83
2023/04/02 16:57:50;;;;;;;;;;;;;;;;;;5033934;28;43037;-83
2023/04/02 17:00:16;;;;;;;;;;;;;;;;;;5031699;28;43028;-82
2023/04/02 17:02:42;;;;;;;;;;;;;;;;;;5043648;28;43094;-83
2023/04/02 17:05:08;;;;;;;;;;;;;;;;;;5038904;28;42938;-83
2023/04/02 17:07:34;;;;;;;;;;;;;;;;;;5042898;28;43674;-83
2023/04/02 17:10:00;;;;;;;;;;;;;;;;;;5042446;28;43219;-83
2023/04/02 17:12:26;;;;;;;;;;;;;;;;;;5021496;28;44687;-82
2023/04/02 17:14:53;;;;;;;;;;;;;;;;;;5041921;28;42991;-82
2023/04/02 17:17:19;;;;;;;;;;;;;;;;;;5035819;28;43918;-82
2023/04/02 17:19:45;;;;;;;;;;;;;;;;;;5017897;28;43293;-82
2023/04/02 17:22:11;;;;;;;;;;;;;;;;;;5041859;28;43040;-83
2023/04/02 17:24:37;;;;;;;;;;;;;;;;;;5037073;28;43055;-82